Terminal Aerodrome Forecast
Issued by NWS Greer, SC

Current Version | Previous Version | Text Only | Print | Product List | Glossary On
Versions: 1 2 3 4 5 6 7 8 9 10 11 12 13 14 15 16 17 18 19 20 21 22 23 24 25 26 27 28 29 30 31 32 33 34 35 36 37 38 39 40 41
518
FTUS42 KGSP 081135
TAFCLT
TAF
KCLT 081135Z 0812/0912 22003KT P6SM FEW180
     FM081400 21004KT P6SM SCT100
     FM081700 22010G18KT P6SM VCSH FEW040 SCT060 BKN090
      TEMPO 0820/0824 5SM -SHRA OVC030
     FM090100 26006KT P6SM SCT060 BKN100=

USA.gov is the U.S. government's official web portal to all federal, state and local government web resources and services.